createdAt,value
2022-10-29T00:01:22.407Z,98637.50
2022-10-29T00:03:51.683Z,98630.59
2022-10-29T00:08:49.411Z,98629.84
2022-10-29T00:11:21.454Z,98630.66
2022-10-29T00:13:55.771Z,98637.38
2022-10-29T00:16:27.385Z,98648.31
2022-10-29T00:18:57.694Z,98643.88
2022-10-29T00:21:28.019Z,98645.69
2022-10-29T00:23:59.172Z,98649.16
2022-10-29T00:26:30.726Z,98655.94
2022-10-29T00:29:00.169Z,98659.88
2022-10-29T00:31:29.164Z,98655.63
2022-10-29T00:33:58.539Z,98657.25
2022-10-29T00:36:30.078Z,98653.53
2022-10-29T00:38:59.585Z,98656.34
2022-10-29T00:41:30.606Z,98653.63
2022-10-29T00:44:23.823Z,98663.75
2022-10-29T00:46:58.695Z,98664.88
2022-10-29T00:49:28.952Z,98664.22
2022-10-29T00:51:58.600Z,98660.75
2022-10-29T00:54:29.535Z,98666.84
2022-10-29T00:57:15.867Z,98659.50
2022-10-29T01:02:24.848Z,98659.25
2022-10-29T01:04:56.505Z,98653.97
2022-10-29T01:07:28.753Z,98659.41
2022-10-29T01:10:00.192Z,98658.50
2022-10-29T01:12:39.864Z,98654.78
2022-10-29T01:15:35.849Z,98659.25
2022-10-29T01:18:23.292Z,98661.78
2022-10-29T01:21:10.246Z,98663.84
2022-10-29T01:24:09.947Z,98666.72
2022-10-29T01:27:07.195Z,98665.97
2022-10-29T01:29:46.259Z,98662.50
2022-10-29T01:32:18.409Z,98659.19
2022-10-29T01:35:00.312Z,98665.97
2022-10-29T01:37:43.053Z,98667.34
2022-10-29T01:40:36.694Z,98665.97
2022-10-29T01:43:39.211Z,98668.69
2022-10-29T01:46:19.324Z,98669.16
2022-10-29T01:48:56.526Z,98675.66
2022-10-29T01:51:30.766Z,98676.63
2022-10-29T01:54:02.824Z,98684.34
2022-10-29T01:56:32.711Z,98682.69
2022-10-29T01:59:04.265Z,98685.22
2022-10-29T02:01:57.316Z,98689.69
2022-10-29T02:04:47.440Z,98693.03
2022-10-29T02:07:26.464Z,98685.91
2022-10-29T02:10:27.231Z,98702.28
2022-10-29T02:12:58.722Z,98700.84
2022-10-29T02:16:00.124Z,98694.88
2022-10-29T02:18:30.178Z,98701.13
2022-10-29T02:20:59.580Z,98708.84
2022-10-29T02:23:30.110Z,98698.44
2022-10-29T02:25:59.398Z,98712.72
2022-10-29T02:28:28.719Z,98706.53
2022-10-29T02:30:57.972Z,98713.09
2022-10-29T02:33:27.352Z,98717.13
2022-10-29T02:35:56.425Z,98717.72
2022-10-29T02:38:26.648Z,98724.41
2022-10-29T02:40:56.042Z,98716.25
2022-10-29T02:43:25.524Z,98732.31
2022-10-29T02:46:12.403Z,98730.41
2022-10-29T02:48:42.686Z,98734.88
2022-10-29T02:51:12.372Z,98733.81
2022-10-29T02:53:41.844Z,98735.25
2022-10-29T02:56:12.415Z,98741.72
2022-10-29T02:58:41.738Z,98736.19
2022-10-29T03:01:10.921Z,98739.50
2022-10-29T03:03:40.376Z,98749.69
2022-10-29T03:06:17.368Z,98748.00
2022-10-29T03:08:47.422Z,98755.72
2022-10-29T03:11:16.849Z,98752.75
2022-10-29T03:13:45.944Z,98745.53
2022-10-29T03:16:17.271Z,98756.22
2022-10-29T03:18:46.524Z,98760.47
2022-10-29T03:21:15.636Z,98756.47
2022-10-29T03:23:45.516Z,98763.88
2022-10-29T03:26:14.596Z,98758.06
2022-10-29T03:31:13.608Z,98773.06
2022-10-29T03:33:42.943Z,98775.19
2022-10-29T03:36:12.444Z,98776.53
2022-10-29T03:38:41.992Z,98772.66
2022-10-29T03:41:11.993Z,98772.16
2022-10-29T03:43:42.200Z,98776.97
2022-10-29T03:46:11.753Z,98777.63
2022-10-29T03:48:41.595Z,98777.91
2022-10-29T03:51:12.178Z,98777.16
2022-10-29T03:53:41.854Z,98783.97
2022-10-29T03:56:12.295Z,98783.47
2022-10-29T03:58:42.852Z,98785.88
2022-10-29T04:01:12.582Z,98782.09
2022-10-29T04:03:43.750Z,98785.41
2022-10-29T04:06:16.585Z,98784.06
2022-10-29T04:08:46.148Z,98784.22
2022-10-29T04:11:15.742Z,98792.16
2022-10-29T04:13:45.119Z,98790.59
2022-10-29T04:16:14.386Z,98788.91
2022-10-29T04:18:43.692Z,98787.63
2022-10-29T04:29:41.427Z,98794.38
2022-10-29T04:32:10.861Z,98792.25
2022-10-29T04:34:40.317Z,98796.69
2022-10-29T04:37:09.953Z,98793.44
2022-10-29T04:39:39.349Z,98787.56
2022-10-29T04:42:08.817Z,98801.56
2022-10-29T04:44:38.962Z,98797.66
2022-10-29T04:47:08.281Z,98794.75
2022-10-29T04:49:37.999Z,98791.84
2022-10-29T04:52:07.494Z,98794.53
2022-10-29T04:54:36.723Z,98793.97
2022-10-29T04:57:06.149Z,98792.22
2022-10-29T04:59:35.674Z,98795.72
2022-10-29T05:02:04.992Z,98791.56
2022-10-29T05:04:34.512Z,98793.88
2022-10-29T05:07:04.012Z,98798.03
2022-10-29T05:09:33.495Z,98795.03
2022-10-29T05:12:02.812Z,98788.78
2022-10-29T05:14:33.079Z,98795.69
2022-10-29T05:17:02.339Z,98786.09
2022-10-29T05:19:31.972Z,98786.75
2022-10-29T05:22:01.747Z,98790.03
2022-10-29T05:24:30.787Z,98782.59
2022-10-29T05:27:00.562Z,98790.13
2022-10-29T05:29:29.899Z,98780.31
2022-10-29T05:31:59.411Z,98775.31
2022-10-29T05:34:28.827Z,98775.13
2022-10-29T05:36:58.592Z,98774.59
2022-10-29T05:39:27.662Z,98782.56
2022-10-29T05:41:57.632Z,98777.50
2022-10-29T05:44:26.795Z,98774.88
2022-10-29T05:46:57.935Z,98768.59
2022-10-29T05:49:27.247Z,98773.13
2022-10-29T05:51:56.166Z,98762.09
2022-10-29T05:54:26.412Z,98766.09
2022-10-29T05:56:55.976Z,98761.16
2022-10-29T05:59:31.016Z,98760.53
2022-10-29T06:02:03.034Z,98762.88
2022-10-29T06:04:32.468Z,98757.63
2022-10-29T06:07:02.988Z,98762.28
2022-10-29T06:09:33.482Z,98750.47
2022-10-29T06:12:02.940Z,98752.94
2022-10-29T06:14:32.440Z,98760.72
2022-10-29T06:17:03.465Z,98754.06
2022-10-29T06:19:33.064Z,98744.81
2022-10-29T06:22:02.929Z,98749.88
2022-10-29T06:24:32.483Z,98752.50
2022-10-29T06:27:01.556Z,98753.22
2022-10-29T06:29:31.908Z,98744.56
2022-10-29T06:32:01.442Z,98745.63
2022-10-29T06:34:30.751Z,98745.13
2022-10-29T06:37:03.329Z,98741.63
2022-10-29T06:39:32.882Z,98741.00
2022-10-29T06:42:02.184Z,98731.28
2022-10-29T06:44:50.896Z,98722.41
2022-10-29T06:47:21.915Z,98727.91
2022-10-29T06:49:51.206Z,98725.78
2022-10-29T06:52:20.434Z,98723.13
2022-10-29T06:55:09.127Z,98712.47
2022-10-29T06:57:39.595Z,98701.03
2022-10-29T07:00:09.530Z,98703.28
2022-10-29T07:02:38.746Z,98702.34
2022-10-29T07:05:08.185Z,98700.41
2022-10-29T07:07:38.148Z,98693.31
2022-10-29T07:10:09.657Z,98693.13
2022-10-29T07:12:57.625Z,98681.50
2022-10-29T07:15:45.768Z,98686.16
2022-10-29T07:18:14.922Z,98679.59
2022-10-29T07:20:46.122Z,98673.97
2022-10-29T07:23:15.876Z,98672.78
2022-10-29T07:25:45.040Z,98674.72
2022-10-29T07:28:21.864Z,98669.91
2022-10-29T07:30:51.864Z,98668.91
2022-10-29T07:33:20.938Z,98672.06
2022-10-29T07:35:49.878Z,98661.50
2022-10-29T07:38:19.758Z,98659.34
2022-10-29T07:40:51.166Z,98654.94
2022-10-29T07:43:22.742Z,98657.84
2022-10-29T07:45:52.896Z,98654.59
2022-10-29T07:48:22.992Z,98655.19
2022-10-29T07:50:52.215Z,98649.16
2022-10-29T07:53:21.460Z,98648.63
2022-10-29T07:55:55.129Z,98642.03
2022-10-29T07:58:25.230Z,98637.59
2022-10-29T08:00:55.114Z,98634.78
2022-10-29T08:03:24.587Z,98628.75
2022-10-29T08:05:56.617Z,98631.06
2022-10-29T08:08:27.644Z,98623.81
2022-10-29T08:11:02.614Z,98627.75
2022-10-29T08:13:32.380Z,98627.47
2022-10-29T08:16:01.922Z,98620.03
2022-10-29T08:18:31.095Z,98611.16
2022-10-29T08:21:00.347Z,98611.59
2022-10-29T08:23:29.467Z,98602.72
2022-10-29T08:26:01.437Z,98612.34
2022-10-29T08:28:33.153Z,98621.81
2022-10-29T08:31:05.633Z,98613.06
2022-10-29T08:33:34.540Z,98608.63
2022-10-29T08:36:03.825Z,98610.69
2022-10-29T08:38:33.503Z,98599.63
2022-10-29T08:41:19.457Z,98611.03
2022-10-29T08:44:07.918Z,98604.06
2022-10-29T08:46:49.374Z,98594.94
2022-10-29T08:49:49.046Z,98601.69
2022-10-29T08:52:27.990Z,98600.09
2022-10-29T08:55:20.869Z,98604.56
2022-10-29T08:58:02.432Z,98592.53
2022-10-29T09:00:39.980Z,98592.63
2022-10-29T09:03:14.163Z,98584.84
2022-10-29T09:06:02.550Z,98588.78
2022-10-29T09:09:09.232Z,98588.78
2022-10-29T09:12:05.872Z,98580.84
2022-10-29T09:14:41.280Z,98584.22
2022-10-29T09:17:47.666Z,98589.88
2022-10-29T09:20:34.348Z,98571.47
2022-10-29T09:23:30.803Z,98575.94
2022-10-29T09:26:07.431Z,98568.34
2022-10-29T09:28:56.953Z,98575.81
2022-10-29T09:31:42.750Z,98567.16
2022-10-29T09:34:23.723Z,98574.84
2022-10-29T09:36:52.889Z,98570.72
2022-10-29T09:39:41.200Z,98570.91
2022-10-29T09:42:28.445Z,98573.63
2022-10-29T09:45:04.458Z,98572.84
2022-10-29T09:47:45.474Z,98569.78
2022-10-29T09:50:40.764Z,98569.19
2022-10-29T09:53:10.365Z,98566.63
2022-10-29T09:55:45.742Z,98567.13
2022-10-29T09:58:22.953Z,98571.91
2022-10-29T10:00:56.437Z,98564.13
2022-10-29T10:03:56.643Z,98569.25
2022-10-29T10:06:26.670Z,98566.59
2022-10-29T10:09:02.903Z,98562.06
2022-10-29T10:11:50.898Z,98569.59
2022-10-29T10:14:23.178Z,98563.94
2022-10-29T10:17:11.263Z,98564.56
2022-10-29T10:19:49.842Z,98555.31
2022-10-29T10:22:25.780Z,98561.78
2022-10-29T10:25:05.191Z,98568.56
2022-10-29T10:27:34.739Z,98558.25
2022-10-29T10:30:06.808Z,98563.91
2022-10-29T10:32:38.911Z,98564.69
2022-10-29T10:35:32.039Z,98568.47
2022-10-29T10:38:14.220Z,98559.56
2022-10-29T10:40:44.159Z,98556.28
2022-10-29T10:43:23.676Z,98561.09
2022-10-29T10:46:05.358Z,98561.56
2022-10-29T10:51:38.174Z,98561.41
2022-10-29T10:54:26.211Z,98562.56
2022-10-29T10:57:06.685Z,98556.06
2022-10-29T10:59:50.876Z,98556.69
2022-10-29T11:02:37.749Z,98560.88
2022-10-29T11:05:27.563Z,98561.34
2022-10-29T11:08:23.197Z,98561.94
2022-10-29T11:10:57.845Z,98555.41
2022-10-29T11:13:34.366Z,98559.56
2022-10-29T11:16:21.210Z,98566.75
2022-10-29T11:19:02.124Z,98569.69
2022-10-29T11:21:45.231Z,98569.50
2022-10-29T11:24:14.358Z,98575.50
2022-10-29T11:26:56.345Z,98573.50
2022-10-29T11:29:53.361Z,98573.72
2022-10-29T11:32:43.933Z,98575.31
2022-10-29T11:35:23.898Z,98581.00
2022-10-29T11:38:11.780Z,98587.13
2022-10-29T11:40:56.020Z,98577.72
2022-10-29T11:43:25.780Z,98582.72
2022-10-29T11:46:15.602Z,98586.22
2022-10-29T11:49:27.664Z,98593.06
2022-10-29T11:52:13.143Z,98586.94
2022-10-29T11:55:17.517Z,98596.16
2022-10-29T11:57:56.433Z,98600.38
2022-10-29T12:00:27.078Z,98591.47
2022-10-29T12:03:13.888Z,98598.22
2022-10-29T12:06:05.243Z,98607.06
2022-10-29T12:08:59.237Z,98598.31
2022-10-29T12:11:46.825Z,98607.16
2022-10-29T12:14:26.171Z,98611.00
2022-10-29T12:17:11.656Z,98614.28
2022-10-29T12:19:58.684Z,98613.22
2022-10-29T12:23:02.565Z,98618.50
2022-10-29T12:25:49.727Z,98615.69
2022-10-29T12:28:40.964Z,98624.06
2022-10-29T12:31:18.735Z,98630.56
2022-10-29T12:33:56.107Z,98631.69
2022-10-29T12:36:57.693Z,98624.19
2022-10-29T12:39:38.698Z,98631.63
2022-10-29T12:42:28.608Z,98643.06
2022-10-29T12:45:25.499Z,98645.03
2022-10-29T12:48:22.003Z,98643.44
2022-10-29T12:51:18.727Z,98645.78
2022-10-29T12:54:05.740Z,98651.50
2022-10-29T12:56:35.403Z,98655.06
2022-10-29T12:59:25.253Z,98654.44
2022-10-29T13:02:11.111Z,98662.13
2022-10-29T13:05:12.260Z,98654.97
2022-10-29T13:07:47.616Z,98666.63
2022-10-29T13:10:27.260Z,98673.38
2022-10-29T13:12:56.547Z,98675.41
2022-10-29T13:15:39.872Z,98669.78
2022-10-29T13:18:30.528Z,98683.41
2022-10-29T13:20:59.986Z,98681.06
2022-10-29T13:23:30.116Z,98689.19
2022-10-29T13:26:06.437Z,98694.44
2022-10-29T13:28:38.308Z,98701.66
2022-10-29T13:31:07.731Z,98702.44
2022-10-29T13:33:39.096Z,98706.97
2022-10-29T13:36:33.143Z,98707.81
2022-10-29T13:39:07.385Z,98704.84
2022-10-29T13:41:45.140Z,98712.97
2022-10-29T13:44:26.574Z,98716.72
2022-10-29T13:47:04.109Z,98729.22
2022-10-29T13:49:46.126Z,98728.03
2022-10-29T13:52:21.111Z,98729.31
2022-10-29T13:55:02.683Z,98728.22
2022-10-29T13:57:53.850Z,98733.81
2022-10-29T14:00:23.808Z,98734.38
2022-10-29T14:03:15.130Z,98738.09
2022-10-29T14:05:48.873Z,98740.66
2022-10-29T14:08:39.747Z,98740.31
2022-10-29T14:11:38.691Z,98753.44
2022-10-29T14:14:28.595Z,98749.03
2022-10-29T14:17:21.048Z,98750.63
2022-10-29T14:19:52.831Z,98756.75
2022-10-29T14:22:36.536Z,98754.97
2022-10-29T14:25:31.276Z,98756.75
2022-10-29T14:28:33.156Z,98759.88
2022-10-29T14:31:13.580Z,98759.09
2022-10-29T14:33:47.566Z,98763.75
2022-10-29T14:36:20.634Z,98763.59
2022-10-29T14:39:03.088Z,98766.97
2022-10-29T14:41:33.821Z,98766.78
2022-10-29T14:44:35.687Z,98771.00
2022-10-29T14:47:15.233Z,98772.25
2022-10-29T14:49:50.193Z,98775.19
2022-10-29T14:52:36.406Z,98785.00
2022-10-29T14:55:32.161Z,98785.00
2022-10-29T14:58:09.370Z,98787.00
2022-10-29T15:00:39.107Z,98791.94
2022-10-29T15:03:09.169Z,98790.16
2022-10-29T15:05:39.759Z,98794.72
2022-10-29T15:08:17.591Z,98795.09
2022-10-29T15:10:57.313Z,98798.19
2022-10-29T15:13:30.531Z,98801.66
2022-10-29T15:16:10.314Z,98803.38
2022-10-29T15:18:40.737Z,98804.75
2022-10-29T15:21:10.074Z,98806.00
2022-10-29T15:23:46.618Z,98801.13
2022-10-29T15:26:24.557Z,98803.28
2022-10-29T15:28:58.486Z,98800.97
2022-10-29T15:31:35.379Z,98802.06
2022-10-29T15:34:30.887Z,98802.59
2022-10-29T15:37:14.641Z,98798.13
2022-10-29T15:39:58.959Z,98808.00
2022-10-29T15:42:36.776Z,98808.84
2022-10-29T15:45:18.033Z,98806.31
2022-10-29T15:48:13.214Z,98802.22
2022-10-29T15:50:47.366Z,98809.78
2022-10-29T15:53:18.138Z,98808.22
2022-10-29T15:55:47.561Z,98811.13
2022-10-29T15:58:21.035Z,98811.03
2022-10-29T16:00:51.297Z,98818.13
2022-10-29T16:03:23.284Z,98813.53
2022-10-29T16:06:05.104Z,98815.31
2022-10-29T16:08:51.470Z,98811.97
2022-10-29T16:11:22.178Z,98813.50
2022-10-29T16:13:54.527Z,98816.31
2022-10-29T16:16:26.918Z,98820.66
2022-10-29T16:18:56.212Z,98814.75
2022-10-29T16:21:27.434Z,98821.63
2022-10-29T16:23:56.921Z,98822.72
2022-10-29T16:26:27.475Z,98823.84
2022-10-29T16:28:57.867Z,98834.47
2022-10-29T16:31:29.451Z,98832.63
2022-10-29T16:34:00.766Z,98827.53
2022-10-29T16:36:30.129Z,98833.69
2022-10-29T16:38:59.364Z,98831.97
2022-10-29T16:41:29.254Z,98839.06
2022-10-29T16:43:58.397Z,98831.66
2022-10-29T16:46:28.226Z,98827.53
2022-10-29T16:48:57.361Z,98835.47
2022-10-29T16:51:26.411Z,98821.44
2022-10-29T16:53:56.203Z,98835.47
2022-10-29T16:56:25.245Z,98834.53
2022-10-29T16:59:01.548Z,98829.31
2022-10-29T17:01:31.468Z,98834.81
2022-10-29T17:04:00.931Z,98832.22
2022-10-29T17:06:30.172Z,98835.47
2022-10-29T17:08:58.998Z,98838.09
2022-10-29T17:11:28.310Z,98832.91
2022-10-29T17:13:57.358Z,98833.84
2022-10-29T17:16:27.147Z,98833.06
2022-10-29T17:18:57.428Z,98834.81
2022-10-29T17:21:26.878Z,98830.75
2022-10-29T17:23:56.296Z,98828.97
2022-10-29T17:26:25.532Z,98824.69
2022-10-29T17:28:54.725Z,98825.66
2022-10-29T17:31:24.195Z,98833.81
2022-10-29T17:33:53.110Z,98827.81
2022-10-29T17:36:22.470Z,98833.03
2022-10-29T17:38:51.673Z,98830.47
2022-10-29T17:41:20.817Z,98823.00
2022-10-29T17:43:50.802Z,98825.25
2022-10-29T17:46:19.648Z,98826.25
2022-10-29T17:48:48.567Z,98830.75
2022-10-29T17:51:17.908Z,98817.06
2022-10-29T17:53:49.253Z,98820.44
2022-10-29T17:56:21.168Z,98825.47
2022-10-29T17:58:50.446Z,98821.28
2022-10-29T18:01:22.112Z,98818.81
2022-10-29T18:03:51.357Z,98823.81
2022-10-29T18:06:20.409Z,98822.06
2022-10-29T18:08:49.832Z,98824.53
2022-10-29T18:11:21.246Z,98823.69
2022-10-29T18:13:52.619Z,98823.00
2022-10-29T18:16:24.218Z,98827.72
2022-10-29T18:19:01.266Z,98828.91
2022-10-29T18:21:32.790Z,98825.66
2022-10-29T18:24:02.032Z,98826.44
2022-10-29T18:26:33.301Z,98827.34
2022-10-29T18:29:05.796Z,98826.38
2022-10-29T18:31:36.330Z,98826.56
2022-10-29T18:34:08.741Z,98827.34
2022-10-29T18:36:38.462Z,98820.66
2022-10-29T18:39:07.702Z,98822.66
2022-10-29T18:41:38.071Z,98821.94
2022-10-29T18:44:07.348Z,98821.16
2022-10-29T18:46:36.935Z,98817.69
2022-10-29T18:49:06.527Z,98821.31
2022-10-29T18:51:35.617Z,98817.13
2022-10-29T18:54:06.438Z,98809.06
2022-10-29T18:56:35.980Z,98813.75
2022-10-29T18:59:05.149Z,98823.44
2022-10-29T19:01:39.296Z,98814.94
2022-10-29T19:04:12.560Z,98818.13
2022-10-29T19:06:42.458Z,98815.22
2022-10-29T19:09:12.446Z,98811.91
2022-10-29T19:11:42.619Z,98815.34
2022-10-29T19:14:15.182Z,98815.06
2022-10-29T19:16:44.586Z,98808.53
2022-10-29T19:19:17.046Z,98811.09
2022-10-29T19:21:48.472Z,98806.81
2022-10-29T19:24:18.100Z,98805.94
2022-10-29T19:26:47.126Z,98808.84
2022-10-29T19:29:16.782Z,98808.94
2022-10-29T19:31:47.613Z,98808.09
2022-10-29T19:34:17.084Z,98805.59
2022-10-29T19:36:48.073Z,98809.34
2022-10-29T19:39:18.309Z,98803.03
2022-10-29T19:41:47.438Z,98807.44
2022-10-29T19:44:16.352Z,98804.25
2022-10-29T19:46:45.671Z,98808.75
2022-10-29T19:49:15.901Z,98803.38
2022-10-29T19:51:47.518Z,98803.50
2022-10-29T19:54:16.722Z,98800.91
2022-10-29T19:56:45.722Z,98802.78
2022-10-29T19:59:15.122Z,98798.53
2022-10-29T20:01:45.346Z,98794.94
2022-10-29T20:04:14.662Z,98790.75
2022-10-29T20:06:44.524Z,98790.69
2022-10-29T20:09:13.444Z,98794.94
2022-10-29T20:11:42.962Z,98801.09
2022-10-29T20:14:12.222Z,98795.09
2022-10-29T20:16:42.022Z,98786.41
2022-10-29T20:19:12.654Z,98791.63
2022-10-29T20:21:42.298Z,98789.06
2022-10-29T20:24:11.271Z,98792.78
2022-10-29T20:26:40.368Z,98788.28
2022-10-29T20:29:09.586Z,98787.34
2022-10-29T20:31:41.432Z,98789.44
2022-10-29T20:34:11.209Z,98794.16
2022-10-29T20:36:40.780Z,98791.72
2022-10-29T20:39:10.068Z,98791.38
2022-10-29T20:41:39.976Z,98786.16
2022-10-29T20:44:09.483Z,98779.84
2022-10-29T20:46:42.568Z,98780.75
2022-10-29T20:49:13.060Z,98779.00
2022-10-29T20:51:42.085Z,98777.28
2022-10-29T20:54:11.497Z,98774.94
2022-10-29T20:56:40.738Z,98773.28
2022-10-29T20:59:09.830Z,98775.81
2022-10-29T21:01:39.188Z,98769.66
2022-10-29T21:04:08.769Z,98769.88
2022-10-29T21:06:38.064Z,98768.06
2022-10-29T21:09:08.151Z,98769.16
2022-10-29T21:11:37.356Z,98766.72
2022-10-29T21:14:07.240Z,98767.59
2022-10-29T21:16:36.269Z,98769.25
2022-10-29T21:19:07.829Z,98771.44
2022-10-29T21:21:37.324Z,98762.97
2022-10-29T21:24:06.250Z,98769.94
2022-10-29T21:26:36.086Z,98765.63
2022-10-29T21:29:04.991Z,98764.63
2022-10-29T21:31:34.141Z,98761.97
2022-10-29T21:34:03.321Z,98763.59
2022-10-29T21:36:32.494Z,98757.66
2022-10-29T21:39:01.345Z,98756.88
2022-10-29T21:41:31.275Z,98755.13
2022-10-29T21:44:00.578Z,98756.13
2022-10-29T21:46:30.289Z,98757.78
2022-10-29T21:48:59.495Z,98749.22
2022-10-29T21:51:28.539Z,98749.22
2022-10-29T21:53:57.608Z,98747.78
2022-10-29T21:56:26.582Z,98753.81
2022-10-29T21:58:56.635Z,98750.94
2022-10-29T22:01:26.156Z,98752.06
2022-10-29T22:03:55.193Z,98746.81
2022-10-29T22:06:28.557Z,98739.78
2022-10-29T22:09:01.488Z,98746.69
2022-10-29T22:11:30.646Z,98745.38
2022-10-29T22:14:00.335Z,98731.66
2022-10-29T22:16:29.525Z,98727.53
2022-10-29T22:18:58.380Z,98731.66
2022-10-29T22:21:28.282Z,98728.13
2022-10-29T22:23:59.006Z,98737.59
2022-10-29T22:26:30.165Z,98741.31
2022-10-29T22:28:59.154Z,98735.50
2022-10-29T22:31:28.449Z,98742.59
2022-10-29T22:33:57.381Z,98735.91
2022-10-29T22:36:29.456Z,98745.97
2022-10-29T22:39:00.652Z,98738.41
2022-10-29T22:41:31.405Z,98747.28
2022-10-29T22:44:00.487Z,98747.63
2022-10-29T22:46:31.112Z,98750.19
2022-10-29T22:49:03.306Z,98747.88
2022-10-29T22:51:34.829Z,98748.59
2022-10-29T22:54:04.444Z,98756.44
2022-10-29T22:56:35.969Z,98746.97
2022-10-29T22:59:07.589Z,98747.94
2022-10-29T23:01:42.114Z,98750.47
2022-10-29T23:04:15.076Z,98755.94
2022-10-29T23:06:44.242Z,98755.16
2022-10-29T23:09:13.017Z,98742.31
2022-10-29T23:11:42.341Z,98746.09
2022-10-29T23:14:11.478Z,98745.28
2022-10-29T23:16:40.636Z,98743.56
2022-10-29T23:19:11.801Z,98738.34
2022-10-29T23:21:41.343Z,98746.88
2022-10-29T23:24:11.465Z,98740.63
2022-10-29T23:26:40.666Z,98745.28
2022-10-29T23:29:10.071Z,98745.97
2022-10-29T23:31:39.140Z,98748.63
2022-10-29T23:34:08.678Z,98747.72
2022-10-29T23:36:37.818Z,98749.41
2022-10-29T23:39:07.278Z,98749.41
2022-10-29T23:41:36.238Z,98751.91
2022-10-29T23:44:05.802Z,98748.25
2022-10-29T23:46:34.966Z,98750.84
2022-10-29T23:49:04.163Z,98754.41
2022-10-29T23:51:36.074Z,98755.31
2022-10-29T23:54:05.389Z,98751.06
2022-10-29T23:56:34.698Z,98756.31
2022-10-29T23:59:03.504Z,98756.31
